createdAt,value
2024-02-19T00:00:52.123Z,51.10
2024-02-19T00:06:16.534Z,51.30
2024-02-19T00:11:20.891Z,51.30
2024-02-19T00:16:24.853Z,51.10
2024-02-19T00:21:29.165Z,51.20
2024-02-19T00:26:33.776Z,51.20
2024-02-19T00:31:38.331Z,51.50
2024-02-19T00:36:44.979Z,51.90
2024-02-19T00:41:49.896Z,51.50
2024-02-19T00:46:54.881Z,51.60
2024-02-19T00:51:59.731Z,51.50
2024-02-19T00:57:04.557Z,51.60
2024-02-19T01:02:09.757Z,51.60
2024-02-19T01:07:13.892Z,51.80
2024-02-19T01:12:18.762Z,52.10
2024-02-19T01:17:23.105Z,52.60
2024-02-19T01:22:29.344Z,52.10
2024-02-19T01:27:33.569Z,52.40
2024-02-19T01:32:38.766Z,51.70
2024-02-19T01:37:46.384Z,50.90
2024-02-19T01:43:07.072Z,50.50
2024-02-19T01:48:15.242Z,50.40
2024-02-19T01:53:19.649Z,50.40
2024-02-19T01:58:24.969Z,50.70
2024-02-19T02:03:34.486Z,50.30
2024-02-19T02:08:41.919Z,50.80
2024-02-19T02:13:47.537Z,50.90
2024-02-19T02:18:54.714Z,51.00
2024-02-19T02:23:59.885Z,51.20
2024-02-19T02:29:04.073Z,51.10
2024-02-19T02:34:08.583Z,51.60
2024-02-19T02:39:13.214Z,51.50
2024-02-19T02:44:18.326Z,51.70
2024-02-19T02:49:22.636Z,52.20
2024-02-19T02:54:27.799Z,51.80
2024-02-19T02:59:32.074Z,51.70
2024-02-19T03:04:36.629Z,51.90
2024-02-19T03:09:40.935Z,51.80
2024-02-19T03:14:45.839Z,52.00
2024-02-19T03:19:49.971Z,52.00
2024-02-19T03:24:55.312Z,51.30
2024-02-19T03:29:59.907Z,50.70
2024-02-19T03:35:05.142Z,50.70
2024-02-19T03:40:10.384Z,50.30
2024-02-19T03:45:15.037Z,50.50
2024-02-19T03:50:19.460Z,50.30
2024-02-19T03:55:24.041Z,50.60
2024-02-19T04:00:28.288Z,50.90
2024-02-19T04:05:33.335Z,50.80
2024-02-19T04:10:37.406Z,51.00
2024-02-19T04:15:42.008Z,51.20
2024-02-19T04:20:46.116Z,51.40
2024-02-19T04:25:50.642Z,51.80
2024-02-19T04:30:55.238Z,51.60
2024-02-19T04:36:00.084Z,51.60
2024-02-19T04:41:05.070Z,51.50
2024-02-19T04:46:09.081Z,51.60
2024-02-19T04:51:13.234Z,51.70
2024-02-19T04:56:17.644Z,52.00
2024-02-19T05:01:21.583Z,51.80
2024-02-19T05:06:26.488Z,52.10
2024-02-19T05:11:31.788Z,51.20
2024-02-19T05:16:35.885Z,50.70
2024-02-19T05:21:42.874Z,50.40
2024-02-19T05:26:47.100Z,50.40
2024-02-19T05:31:53.014Z,50.50
2024-02-19T05:36:58.151Z,51.00
2024-02-19T05:42:03.647Z,50.90
2024-02-19T05:47:08.056Z,50.90
2024-02-19T05:52:12.188Z,51.40
2024-02-19T05:57:16.613Z,52.10
2024-02-19T06:02:21.613Z,51.80
2024-02-19T06:07:25.996Z,51.80
2024-02-19T06:12:30.197Z,52.50
2024-02-19T06:17:34.811Z,51.60
2024-02-19T06:22:39.328Z,51.70
2024-02-19T06:27:43.474Z,52.30
2024-02-19T06:32:48.188Z,52.40
2024-02-19T06:37:52.436Z,52.30
2024-02-19T06:42:57.123Z,52.60
2024-02-19T06:48:02.194Z,52.70
2024-02-19T06:53:07.965Z,52.10
2024-02-19T06:58:12.881Z,52.10
2024-02-19T07:03:17.818Z,52.70
2024-02-19T07:08:22.413Z,53.70
2024-02-19T07:13:27.492Z,53.00
2024-02-19T07:18:32.066Z,53.80
2024-02-19T07:23:36.720Z,53.60
2024-02-19T07:28:41.115Z,54.00
2024-02-19T07:33:45.696Z,53.90
2024-02-19T07:38:50.397Z,53.50
2024-02-19T07:43:54.861Z,52.70
2024-02-19T07:49:07.289Z,52.90
2024-02-19T07:54:12.528Z,52.90
2024-02-19T07:59:16.957Z,52.60
2024-02-19T08:04:23.639Z,52.80
2024-02-19T08:09:28.140Z,53.10
2024-02-19T08:14:32.318Z,52.90
2024-02-19T08:19:37.702Z,52.80
2024-02-19T08:24:42.294Z,53.10
2024-02-19T08:29:46.694Z,53.10
2024-02-19T08:34:51.025Z,53.40
2024-02-19T08:39:55.321Z,53.20
2024-02-19T08:44:59.933Z,53.50
2024-02-19T08:50:06.004Z,53.70
2024-02-19T08:55:12.166Z,54.00
2024-02-19T09:00:17.390Z,56.10
2024-02-19T09:05:21.712Z,55.80
2024-02-19T09:10:26.160Z,55.20
2024-02-19T09:15:30.954Z,55.50
2024-02-19T09:20:35.461Z,55.00
2024-02-19T09:25:40.594Z,54.90
2024-02-19T09:30:45.277Z,55.30
2024-02-19T09:35:49.966Z,54.90
2024-02-19T09:40:54.262Z,55.00
2024-02-19T09:46:00.843Z,56.00
2024-02-19T09:51:07.138Z,54.70
2024-02-19T09:56:15.992Z,54.10
2024-02-19T10:01:20.659Z,53.90
2024-02-19T10:06:35.313Z,53.60
2024-02-19T10:11:40.559Z,54.20
2024-02-19T10:16:52.405Z,53.70
2024-02-19T10:21:56.697Z,53.70
2024-02-19T10:27:01.606Z,53.90
2024-02-19T10:32:06.927Z,53.30
2024-02-19T10:37:11.165Z,53.10
2024-02-19T10:42:15.647Z,53.20
2024-02-19T10:47:19.801Z,53.10
2024-02-19T10:52:27.329Z,53.50
2024-02-19T10:57:34.495Z,53.80
2024-02-19T11:02:40.175Z,53.70
2024-02-19T11:07:45.837Z,53.90
2024-02-19T11:12:50.680Z,54.00
2024-02-19T11:17:58.028Z,54.00
2024-02-19T11:23:02.254Z,54.10
2024-02-19T11:28:07.180Z,54.10
2024-02-19T11:33:13.076Z,54.20
2024-02-19T11:38:28.108Z,54.90
2024-02-19T11:43:32.925Z,54.30
2024-02-19T11:48:37.716Z,55.00
2024-02-19T11:53:42.072Z,54.70
2024-02-19T11:58:50.753Z,55.20
2024-02-19T12:03:55.564Z,54.60
2024-02-19T12:08:59.704Z,54.60
2024-02-19T12:14:08.447Z,54.80
2024-02-19T12:19:13.259Z,54.70
2024-02-19T12:24:17.833Z,54.60
2024-02-19T12:29:22.078Z,54.00
2024-02-19T12:34:26.413Z,53.20
2024-02-19T12:39:32.184Z,53.10
2024-02-19T12:44:36.657Z,52.80
2024-02-19T12:49:46.547Z,52.80
2024-02-19T12:54:51.504Z,53.00
2024-02-19T12:59:56.890Z,53.10
2024-02-19T13:05:02.679Z,53.20
2024-02-19T13:10:08.044Z,53.30
2024-02-19T13:15:12.963Z,53.00
2024-02-19T13:20:18.065Z,52.80
2024-02-19T13:25:22.662Z,52.80
2024-02-19T13:30:27.173Z,52.70
2024-02-19T13:35:31.690Z,53.10
2024-02-19T13:40:36.475Z,52.50
2024-02-19T13:45:59.157Z,53.00
2024-02-19T13:51:03.660Z,53.40
2024-02-19T13:56:08.194Z,53.70
2024-02-19T14:01:12.401Z,53.40
2024-02-19T14:06:18.258Z,53.80
2024-02-19T14:11:23.461Z,53.90
2024-02-19T14:16:28.407Z,53.70
2024-02-19T14:21:37.105Z,54.10
2024-02-19T14:26:44.859Z,54.40
2024-02-19T14:31:50.048Z,54.60
2024-02-19T14:36:54.624Z,54.50
2024-02-19T14:42:00.528Z,54.60
2024-02-19T14:47:07.399Z,54.10
2024-02-19T14:52:23.144Z,53.40
2024-02-19T14:57:30.372Z,53.50
2024-02-19T15:02:34.852Z,53.60
2024-02-19T15:07:39.863Z,54.00
2024-02-19T15:12:45.513Z,54.60
2024-02-19T15:17:50.861Z,55.30
2024-02-19T15:22:55.170Z,55.60
2024-02-19T15:28:00.043Z,56.10
2024-02-19T15:33:04.610Z,56.90
2024-02-19T15:38:10.140Z,57.20
2024-02-19T15:43:14.573Z,59.30
2024-02-19T15:48:18.783Z,60.90
2024-02-19T15:53:28.600Z,59.10
2024-02-19T15:58:35.725Z,58.50
2024-02-19T16:03:41.618Z,58.10
2024-02-19T16:08:46.157Z,58.10
2024-02-19T16:13:51.762Z,57.80
2024-02-19T16:18:57.461Z,58.20
2024-02-19T16:24:02.037Z,57.60
2024-02-19T16:29:06.409Z,57.30
2024-02-19T16:34:10.964Z,57.00
2024-02-19T16:39:18.721Z,57.20
2024-02-19T16:44:27.051Z,58.20
2024-02-19T16:49:33.431Z,58.60
2024-02-19T16:54:37.650Z,58.00
2024-02-19T16:59:44.673Z,57.20
2024-02-19T17:04:50.947Z,57.50
2024-02-19T17:09:55.557Z,57.30
2024-02-19T17:15:00.897Z,56.90
2024-02-19T17:20:07.276Z,57.60
2024-02-19T17:25:12.986Z,56.90
2024-02-19T17:30:18.068Z,56.50
2024-02-19T17:35:25.141Z,56.60
2024-02-19T17:40:32.210Z,56.40
2024-02-19T17:45:37.630Z,56.30
2024-02-19T17:56:48.814Z,56.10
2024-02-19T18:01:56.290Z,56.20
2024-02-19T18:07:47.019Z,56.20
2024-02-19T18:13:09.097Z,56.10
2024-02-19T18:18:16.470Z,56.20
2024-02-19T18:23:23.354Z,56.10
2024-02-19T18:28:29.822Z,56.00
2024-02-19T18:33:36.056Z,55.80
2024-02-19T18:38:40.977Z,55.50
2024-02-19T18:43:48.309Z,54.60
2024-02-19T18:48:55.538Z,53.80
2024-02-19T18:53:59.983Z,53.90
2024-02-19T18:59:04.872Z,53.40
2024-02-19T19:04:12.156Z,53.90
2024-02-19T19:09:16.444Z,53.40
2024-02-19T19:14:21.816Z,53.40
2024-02-19T19:19:25.923Z,53.20
2024-02-19T19:24:31.198Z,53.30
2024-02-19T19:29:35.109Z,53.60
2024-02-19T19:34:40.476Z,53.90
2024-02-19T19:39:46.694Z,55.20
2024-02-19T19:44:52.597Z,56.00
2024-02-19T19:49:57.510Z,55.90
2024-02-19T19:55:03.757Z,55.20
2024-02-19T20:00:08.828Z,55.90
2024-02-19T20:05:13.899Z,55.80
2024-02-19T20:10:19.025Z,55.90
2024-02-19T20:15:23.619Z,56.00
2024-02-19T20:20:28.186Z,55.40
2024-02-19T20:25:34.999Z,56.20
2024-02-19T20:30:40.139Z,56.00
2024-02-19T20:35:45.668Z,56.50
2024-02-19T20:40:50.273Z,57.30
2024-02-19T20:45:55.013Z,56.50
2024-02-19T20:51:13.153Z,56.00
2024-02-19T20:56:19.040Z,56.20
2024-02-19T21:01:23.210Z,56.30
2024-02-19T21:06:36.395Z,56.30
2024-02-19T21:11:41.113Z,55.70
2024-02-19T21:16:46.589Z,55.20
2024-02-19T21:21:54.060Z,54.50
2024-02-19T21:27:00.341Z,54.00
2024-02-19T21:32:05.715Z,53.80
2024-02-19T21:37:09.801Z,54.50
2024-02-19T21:42:21.952Z,53.90
2024-02-19T21:47:27.833Z,53.90
2024-02-19T21:52:32.098Z,54.10
2024-02-19T21:57:39.538Z,54.20
2024-02-19T22:02:43.823Z,54.30
2024-02-19T22:07:48.161Z,54.30
2024-02-19T22:12:52.340Z,54.20
2024-02-19T22:17:56.553Z,54.30
2024-02-19T22:23:01.163Z,54.90
2024-02-19T22:28:06.600Z,54.70
2024-02-19T22:33:11.456Z,54.80
2024-02-19T22:38:15.717Z,54.80
2024-02-19T22:43:19.804Z,55.10
2024-02-19T22:48:24.563Z,55.20
2024-02-19T22:53:28.574Z,57.60
2024-02-19T22:58:35.081Z,55.70
2024-02-19T23:03:40.019Z,56.00
2024-02-19T23:08:44.586Z,55.70
2024-02-19T23:13:49.161Z,55.40
2024-02-19T23:18:53.943Z,55.20
2024-02-19T23:23:58.381Z,55.00
2024-02-19T23:29:02.861Z,54.80
2024-02-19T23:34:07.647Z,54.40
2024-02-19T23:39:12.454Z,54.30
2024-02-19T23:44:18.384Z,54.50
2024-02-19T23:49:23.185Z,54.40
2024-02-19T23:54:31.052Z,54.30
2024-02-19T23:59:36.128Z,55.20
